Strona główna
METAR-TAF:

METAR-TAF

Lotnisko :

Leconfield, Anglia

Szerokość geograficzna: 53-52-37N, Długość geograficzna: 0-26-15W, wysokość: 7 m

Aktualna obserwacja pogody

Raport powstał 21 minut temu, godzina 15:50 UTC
Wiatr 5 kt od południe w porywach dochodzący do 16 kt
Temperatura 12°C
Wilgotność 71%
Ciśnienie 1005 hPa
Widzialność 10 km lub więcej

METAR: EGXV 171550Z AUTO 17005G16KT 9999 FEW030/// SCT050/// 12/07 Q1005

czas: 17:11 (16:11 UTC)


TAF: brakujący

Obserwacja i prognoza pogody dla ponad 4000 lotnisk (raport METAR i TAF).

Dostępne stacje oznaczono żółtymi i czerwonymi punktami na mapie.

Najedź kursorem aby zobaczyć nazwę stacji.

Kliknij aby zobaczyć obserwacje i prognozy pogody.

Aby zmienić mapę: kliknij na zielony przycisk z czarnym krzyżykiem, aby powiększyć; na zielony przycisk z myślnikiem, aby pomniejszyć; na zielone strzałki, aby przejść do map sąsiednich.


METAR-TAF: